sensor_id;sensor_type;location;lat;lon;timestamp;pressure;altitude;pressure_sealevel;temperature;humidity
36748;BME280;22716;51.556;5.080;2023-02-28T00:00:26;102374.00;;;2.34;93.81
36748;BME280;22716;51.556;5.080;2023-02-28T00:02:55;102386.03;;;2.33;94.06
36748;BME280;22716;51.556;5.080;2023-02-28T00:05:27;102384.38;;;2.35;94.26
36748;BME280;22716;51.556;5.080;2023-02-28T00:07:56;102382.41;;;2.30;94.63
36748;BME280;22716;51.556;5.080;2023-02-28T00:10:27;102378.13;;;2.30;94.82
36748;BME280;22716;51.556;5.080;2023-02-28T00:13:00;102358.78;;;2.22;94.98
36748;BME280;22716;51.556;5.080;2023-02-28T00:15:30;102366.69;;;2.25;95.04
36748;BME280;22716;51.556;5.080;2023-02-28T00:17:59;102359.88;;;2.09;95.46
36748;BME280;22716;51.556;5.080;2023-02-28T00:20:31;102379.84;;;2.12;95.75
36748;BME280;22716;51.556;5.080;2023-02-28T00:23:00;102373.56;;;2.07;96.44
36748;BME280;22716;51.556;5.080;2023-02-28T00:25:28;102366.31;;;2.00;96.31
36748;BME280;22716;51.556;5.080;2023-02-28T00:27:57;102367.28;;;2.02;96.70
36748;BME280;22716;51.556;5.080;2023-02-28T00:30:26;102355.72;;;1.94;96.89
36748;BME280;22716;51.556;5.080;2023-02-28T00:32:55;102361.00;;;1.97;96.53
36748;BME280;22716;51.556;5.080;2023-02-28T00:35:25;102369.94;;;2.03;96.87
36748;BME280;22716;51.556;5.080;2023-02-28T00:37:56;102370.63;;;1.99;96.95
36748;BME280;22716;51.556;5.080;2023-02-28T00:40:25;102376.59;;;1.98;97.24
36748;BME280;22716;51.556;5.080;2023-02-28T00:42:53;102372.06;;;1.94;97.65
36748;BME280;22716;51.556;5.080;2023-02-28T00:45:22;102370.31;;;1.93;97.69
36748;BME280;22716;51.556;5.080;2023-02-28T00:47:51;102364.91;;;1.89;97.69
36748;BME280;22716;51.556;5.080;2023-02-28T00:50:20;102363.81;;;1.84;98.08
36748;BME280;22716;51.556;5.080;2023-02-28T00:52:49;102367.34;;;1.86;98.11
36748;BME280;22716;51.556;5.080;2023-02-28T00:55:20;102356.88;;;1.83;98.22
36748;BME280;22716;51.556;5.080;2023-02-28T00:57:49;102361.88;;;1.80;98.79
36748;BME280;22716;51.556;5.080;2023-02-28T01:00:19;102360.13;;;1.79;98.68
36748;BME280;22716;51.556;5.080;2023-02-28T01:02:47;102365.28;;;1.79;98.97
36748;BME280;22716;51.556;5.080;2023-02-28T01:05:16;102364.16;;;1.74;99.20
36748;BME280;22716;51.556;5.080;2023-02-28T01:07:45;102370.97;;;1.72;99.52
36748;BME280;22716;51.556;5.080;2023-02-28T01:10:14;102367.78;;;1.59;99.92
36748;BME280;22716;51.556;5.080;2023-02-28T01:12:45;102383.28;;;1.59;100.00
36748;BME280;22716;51.556;5.080;2023-02-28T01:15:14;102376.41;;;1.60;100.00
36748;BME280;22716;51.556;5.080;2023-02-28T01:17:43;102382.69;;;1.65;100.00
36748;BME280;22716;51.556;5.080;2023-02-28T01:20:12;102371.19;;;1.58;100.00
36748;BME280;22716;51.556;5.080;2023-02-28T01:22:41;102377.22;;;1.59;100.00
36748;BME280;22716;51.556;5.080;2023-02-28T01:25:10;102379.88;;;1.60;100.00
36748;BME280;22716;51.556;5.080;2023-02-28T01:27:38;102377.31;;;1.60;100.00
36748;BME280;22716;51.556;5.080;2023-02-28T01:30:11;102377.47;;;1.63;100.00
36748;BME280;22716;51.556;5.080;2023-02-28T01:32:40;102374.94;;;1.65;100.00
36748;BME280;22716;51.556;5.080;2023-02-28T01:35:09;102373.50;;;1.70;100.00
36748;BME280;22716;51.556;5.080;2023-02-28T01:37:38;102381.25;;;1.70;100.00
36748;BME280;22716;51.556;5.080;2023-02-28T01:40:09;102375.19;;;1.69;100.00
36748;BME280;22716;51.556;5.080;2023-02-28T01:42:38;102374.59;;;1.75;100.00
36748;BME280;22716;51.556;5.080;2023-02-28T01:45:20;102374.50;;;1.74;100.00
36748;BME280;22716;51.556;5.080;2023-02-28T01:47:52;102373.53;;;1.72;100.00
36748;BME280;22716;51.556;5.080;2023-02-28T01:50:25;102368.06;;;1.65;100.00
36748;BME280;22716;51.556;5.080;2023-02-28T01:52:58;102370.59;;;1.64;100.00
36748;BME280;22716;51.556;5.080;2023-02-28T01:55:28;102364.59;;;1.65;100.00
36748;BME280;22716;51.556;5.080;2023-02-28T01:58:00;102370.16;;;1.73;100.00
36748;BME280;22716;51.556;5.080;2023-02-28T02:00:33;102369.47;;;1.77;100.00
36748;BME280;22716;51.556;5.080;2023-02-28T02:03:07;102356.50;;;1.75;100.00
36748;BME280;22716;51.556;5.080;2023-02-28T02:05:38;102358.34;;;1.78;100.00
36748;BME280;22716;51.556;5.080;2023-02-28T02:08:16;102353.75;;;1.72;100.00
36748;BME280;22716;51.556;5.080;2023-02-28T02:10:49;102352.81;;;1.70;100.00
36748;BME280;22716;51.556;5.080;2023-02-28T02:13:28;102344.91;;;1.67;100.00
36748;BME280;22716;51.556;5.080;2023-02-28T02:16:10;102345.13;;;1.72;100.00
36748;BME280;22716;51.556;5.080;2023-02-28T02:18:45;102351.53;;;1.80;100.00
36748;BME280;22716;51.556;5.080;2023-02-28T02:21:44;102346.38;;;1.80;100.00
36748;BME280;22716;51.556;5.080;2023-02-28T02:24:48;102347.41;;;1.83;100.00
36748;BME280;22716;51.556;5.080;2023-02-28T02:27:33;102356.22;;;1.87;100.00
36748;BME280;22716;51.556;5.080;2023-02-28T02:30:18;102339.91;;;1.88;100.00
36748;BME280;22716;51.556;5.080;2023-02-28T02:33:17;102354.72;;;1.92;100.00
36748;BME280;22716;51.556;5.080;2023-02-28T02:35:54;102347.66;;;1.88;100.00
36748;BME280;22716;51.556;5.080;2023-02-28T02:38:32;102340.63;;;1.85;100.00
36748;BME280;22716;51.556;5.080;2023-02-28T02:41:08;102333.53;;;1.81;100.00
36748;BME280;22716;51.556;5.080;2023-02-28T02:43:41;102346.06;;;1.91;100.00
36748;BME280;22716;51.556;5.080;2023-02-28T02:46:18;102333.84;;;1.87;100.00
36748;BME280;22716;51.556;5.080;2023-02-28T02:48:49;102340.41;;;1.81;100.00
36748;BME280;22716;51.556;5.080;2023-02-28T02:51:24;102338.19;;;1.88;100.00
36748;BME280;22716;51.556;5.080;2023-02-28T02:53:55;102359.91;;;1.92;100.00
36748;BME280;22716;51.556;5.080;2023-02-28T02:56:28;102339.06;;;1.89;100.00
36748;BME280;22716;51.556;5.080;2023-02-28T02:59:01;102351.34;;;1.93;100.00
36748;BME280;22716;51.556;5.080;2023-02-28T03:01:31;102356.06;;;2.01;100.00
36748;BME280;22716;51.556;5.080;2023-02-28T03:04:04;102349.19;;;2.02;100.00
36748;BME280;22716;51.556;5.080;2023-02-28T03:06:36;102347.13;;;1.95;100.00
36748;BME280;22716;51.556;5.080;2023-02-28T03:09:05;102345.22;;;1.91;100.00
36748;BME280;22716;51.556;5.080;2023-02-28T03:11:35;102333.53;;;1.81;100.00
36748;BME280;22716;51.556;5.080;2023-02-28T03:14:12;102350.59;;;1.95;100.00
36748;BME280;22716;51.556;5.080;2023-02-28T03:19:49;102353.13;;;1.94;100.00
36748;BME280;22716;51.556;5.080;2023-02-28T03:25:29;102347.41;;;2.01;100.00
36748;BME280;22716;51.556;5.080;2023-02-28T03:28:05;102347.56;;;2.04;100.00
36748;BME280;22716;51.556;5.080;2023-02-28T03:30:42;102344.38;;;2.09;100.00
36748;BME280;22716;51.556;5.080;2023-02-28T03:33:20;102341.59;;;2.05;100.00
36748;BME280;22716;51.556;5.080;2023-02-28T03:35:54;102338.03;;;2.03;100.00
36748;BME280;22716;51.556;5.080;2023-02-28T03:38:31;102343.34;;;2.06;100.00
36748;BME280;22716;51.556;5.080;2023-02-28T03:41:06;102341.88;;;2.11;100.00
36748;BME280;22716;51.556;5.080;2023-02-28T03:43:40;102348.81;;;2.12;100.00
36748;BME280;22716;51.556;5.080;2023-02-28T03:46:15;102348.28;;;2.19;100.00
36748;BME280;22716;51.556;5.080;2023-02-28T03:48:51;102345.72;;;2.19;100.00
36748;BME280;22716;51.556;5.080;2023-02-28T03:51:24;102339.44;;;2.14;100.00
36748;BME280;22716;51.556;5.080;2023-02-28T03:53:59;102343.63;;;2.12;100.00
36748;BME280;22716;51.556;5.080;2023-02-28T03:56:33;102348.94;;;2.15;100.00
36748;BME280;22716;51.556;5.080;2023-02-28T03:59:06;102353.22;;;2.14;100.00
36748;BME280;22716;51.556;5.080;2023-02-28T04:01:39;102356.81;;;2.16;100.00
36748;BME280;22716;51.556;5.080;2023-02-28T04:04:10;102357.97;;;2.23;99.82
36748;BME280;22716;51.556;5.080;2023-02-28T04:06:40;102360.41;;;2.20;99.78
36748;BME280;22716;51.556;5.080;2023-02-28T04:09:13;102353.38;;;2.17;99.60
36748;BME280;22716;51.556;5.080;2023-02-28T04:11:44;102361.22;;;2.19;99.43
36748;BME280;22716;51.556;5.080;2023-02-28T04:14:14;102355.25;;;2.20;98.89
36748;BME280;22716;51.556;5.080;2023-02-28T04:16:43;102352.81;;;2.23;98.85
36748;BME280;22716;51.556;5.080;2023-02-28T04:19:13;102361.56;;;2.26;98.33
36748;BME280;22716;51.556;5.080;2023-02-28T04:21:44;102362.16;;;2.21;97.61
36748;BME280;22716;51.556;5.080;2023-02-28T04:24:19;102357.00;;;2.21;97.39
36748;BME280;22716;51.556;5.080;2023-02-28T04:26:49;102339.19;;;2.27;97.18
36748;BME280;22716;51.556;5.080;2023-02-28T04:29:21;102337.28;;;2.23;96.84
36748;BME280;22716;51.556;5.080;2023-02-28T04:31:50;102354.84;;;2.30;96.53
36748;BME280;22716;51.556;5.080;2023-02-28T04:34:20;102348.63;;;2.26;96.40
36748;BME280;22716;51.556;5.080;2023-02-28T04:36:50;102346.50;;;2.18;96.06
36748;BME280;22716;51.556;5.080;2023-02-28T04:39:23;102355.97;;;2.17;95.99
36748;BME280;22716;51.556;5.080;2023-02-28T04:41:52;102358.94;;;2.25;95.92
36748;BME280;22716;51.556;5.080;2023-02-28T04:44:21;102357.38;;;2.29;95.65
36748;BME280;22716;51.556;5.080;2023-02-28T04:46:50;102361.81;;;2.31;95.52
36748;BME280;22716;51.556;5.080;2023-02-28T04:49:19;102373.84;;;2.31;95.30
36748;BME280;22716;51.556;5.080;2023-02-28T04:51:47;102369.47;;;2.30;94.96
36748;BME280;22716;51.556;5.080;2023-02-28T04:54:16;102376.47;;;2.32;94.79
36748;BME280;22716;51.556;5.080;2023-02-28T04:56:48;102364.63;;;2.18;94.44
36748;BME280;22716;51.556;5.080;2023-02-28T04:59:17;102377.63;;;2.19;94.48
36748;BME280;22716;51.556;5.080;2023-02-28T05:01:47;102379.63;;;2.25;94.44
36748;BME280;22716;51.556;5.080;2023-02-28T05:04:16;102378.13;;;2.30;94.33
36748;BME280;22716;51.556;5.080;2023-02-28T05:06:45;102375.53;;;2.30;94.31
36748;BME280;22716;51.556;5.080;2023-02-28T05:09:14;102378.28;;;2.33;94.53
36748;BME280;22716;51.556;5.080;2023-02-28T05:11:42;102375.91;;;2.38;94.29
36748;BME280;22716;51.556;5.080;2023-02-28T05:14:14;102375.91;;;2.38;94.14
36748;BME280;22716;51.556;5.080;2023-02-28T05:16:42;102382.09;;;2.41;94.38
36748;BME280;22716;51.556;5.080;2023-02-28T05:19:11;102388.00;;;2.39;94.44
36748;BME280;22716;51.556;5.080;2023-02-28T05:21:41;102384.38;;;2.35;94.46
36748;BME280;22716;51.556;5.080;2023-02-28T05:24:16;102394.75;;;2.35;94.15
36748;BME280;22716;51.556;5.080;2023-02-28T05:26:49;102391.19;;;2.33;94.21
36748;BME280;22716;51.556;5.080;2023-02-28T05:29:21;102387.88;;;2.36;94.21
36748;BME280;22716;51.556;5.080;2023-02-28T05:31:50;102389.56;;;2.35;94.43
36748;BME280;22716;51.556;5.080;2023-02-28T05:34:19;102381.50;;;2.29;94.35
36748;BME280;22716;51.556;5.080;2023-02-28T05:36:48;102382.41;;;2.30;94.57
36748;BME280;22716;51.556;5.080;2023-02-28T05:39:16;102390.25;;;2.31;94.19
36748;BME280;22716;51.556;5.080;2023-02-28T05:41:45;102391.06;;;2.30;94.21
36748;BME280;22716;51.556;5.080;2023-02-28T05:44:15;102396.91;;;2.26;94.08
36748;BME280;22716;51.556;5.080;2023-02-28T05:46:46;102386.91;;;2.34;94.30
36748;BME280;22716;51.556;5.080;2023-02-28T05:49:15;102396.66;;;2.39;94.12
36748;BME280;22716;51.556;5.080;2023-02-28T05:51:44;102387.97;;;2.37;94.11
36748;BME280;22716;51.556;5.080;2023-02-28T05:54:12;102385.38;;;2.37;94.30
36748;BME280;22716;51.556;5.080;2023-02-28T05:56:41;102387.06;;;2.37;94.08
36748;BME280;22716;51.556;5.080;2023-02-28T05:59:11;102365.44;;;2.17;94.40
36748;BME280;22716;51.556;5.080;2023-02-28T06:01:41;102390.16;;;2.30;94.69
36748;BME280;22716;51.556;5.080;2023-02-28T06:04:18;102383.25;;;2.29;94.43
36748;BME280;22716;51.556;5.080;2023-02-28T06:06:48;102378.94;;;2.29;94.53
36748;BME280;22716;51.556;5.080;2023-02-28T06:09:18;102377.31;;;2.31;94.34
36748;BME280;22716;51.556;5.080;2023-02-28T06:11:46;102374.00;;;2.34;94.40
36748;BME280;22716;51.556;5.080;2023-02-28T06:14:17;102380.84;;;2.33;94.40
36748;BME280;22716;51.556;5.080;2023-02-28T06:16:46;102386.84;;;2.32;94.26
36748;BME280;22716;51.556;5.080;2023-02-28T06:19:18;102372.66;;;2.24;94.20
36748;BME280;22716;51.556;5.080;2023-02-28T06:21:49;102385.81;;;2.29;94.18
36748;BME280;22716;51.556;5.080;2023-02-28T06:24:18;102382.94;;;2.22;94.24
36748;BME280;22716;51.556;5.080;2023-02-28T06:26:47;102364.75;;;2.21;93.97
36748;BME280;22716;51.556;5.080;2023-02-28T06:29:15;102370.16;;;2.25;93.92
36748;BME280;22716;51.556;5.080;2023-02-28T06:31:45;102383.44;;;2.33;93.66
36748;BME280;22716;51.556;5.080;2023-02-28T06:34:16;102389.50;;;2.34;93.44
36748;BME280;22716;51.556;5.080;2023-02-28T06:36:45;102397.47;;;2.38;93.49
36748;BME280;22716;51.556;5.080;2023-02-28T06:39:15;102381.81;;;2.35;93.58
36748;BME280;22716;51.556;5.080;2023-02-28T06:41:44;102395.03;;;2.41;93.35
36748;BME280;22716;51.556;5.080;2023-02-28T06:44:14;102387.41;;;2.44;93.20
36748;BME280;22716;51.556;5.080;2023-02-28T06:46:44;102397.91;;;2.47;93.20
36748;BME280;22716;51.556;5.080;2023-02-28T06:49:13;102387.56;;;2.47;93.32
36748;BME280;22716;51.556;5.080;2023-02-28T06:51:45;102386.47;;;2.42;93.07
36748;BME280;22716;51.556;5.080;2023-02-28T06:54:14;102380.84;;;2.33;93.49
36748;BME280;22716;51.556;5.080;2023-02-28T06:56:42;102407.00;;;2.39;93.59
36748;BME280;22716;51.556;5.080;2023-02-28T06:59:12;102413.06;;;2.40;93.40
36748;BME280;22716;51.556;5.080;2023-02-28T07:01:41;102403.22;;;2.50;93.43
36748;BME280;22716;51.556;5.080;2023-02-28T07:04:11;102412.09;;;2.55;93.42
36748;BME280;22716;51.556;5.080;2023-02-28T07:06:40;102403.66;;;2.59;93.11
36748;BME280;22716;51.556;5.080;2023-02-28T07:09:11;102388.72;;;2.54;92.92
36748;BME280;22716;51.556;5.080;2023-02-28T07:11:40;102402.47;;;2.53;92.80
36748;BME280;22716;51.556;5.080;2023-02-28T07:14:09;102429.06;;;2.68;92.77
36748;BME280;22716;51.556;5.080;2023-02-28T07:16:38;102388.63;;;2.70;92.19
36748;BME280;22716;51.556;5.080;2023-02-28T07:19:07;102409.25;;;2.68;91.96
36748;BME280;22716;51.556;5.080;2023-02-28T07:21:35;102424.41;;;2.78;91.49
36748;BME280;22716;51.556;5.080;2023-02-28T07:24:05;102427.81;;;2.77;91.45
36748;BME280;22716;51.556;5.080;2023-02-28T07:26:37;102414.44;;;2.68;91.01
36748;BME280;22716;51.556;5.080;2023-02-28T07:29:05;102421.41;;;2.69;91.06
36748;BME280;22716;51.556;5.080;2023-02-28T07:31:34;102429.72;;;2.81;90.84
36748;BME280;22716;51.556;5.080;2023-02-28T07:34:03;102422.97;;;2.85;90.40
36748;BME280;22716;51.556;5.080;2023-02-28T07:36:31;102438.16;;;2.97;90.38
36748;BME280;22716;51.556;5.080;2023-02-28T07:39:00;102421.16;;;3.02;89.47
36748;BME280;22716;51.556;5.080;2023-02-28T07:41:30;102414.19;;;3.01;89.25
36748;BME280;22716;51.556;5.080;2023-02-28T07:44:02;102421.22;;;3.03;89.00
36748;BME280;22716;51.556;5.080;2023-02-28T07:46:31;102399.00;;;2.89;88.46
36748;BME280;22716;51.556;5.080;2023-02-28T07:49:01;102433.34;;;3.04;87.97
36748;BME280;22716;51.556;5.080;2023-02-28T07:51:30;102429.25;;;3.09;87.33
36748;BME280;22716;51.556;5.080;2023-02-28T07:53:59;102422.19;;;3.05;86.89
36748;BME280;22716;51.556;5.080;2023-02-28T07:56:28;102432.25;;;3.18;86.51
36748;BME280;22716;51.556;5.080;2023-02-28T07:58:56;102428.78;;;3.18;85.61
36748;BME280;22716;51.556;5.080;2023-02-28T08:01:28;102432.22;;;3.17;85.06
36748;BME280;22716;51.556;5.080;2023-02-28T08:03:57;102438.38;;;3.20;84.38
36748;BME280;22716;51.556;5.080;2023-02-28T08:06:26;102431.19;;;3.13;83.17
36748;BME280;22716;51.556;5.080;2023-02-28T08:08:54;102442.63;;;3.18;82.85
36748;BME280;22716;51.556;5.080;2023-02-28T08:11:24;102438.59;;;3.25;82.15
36748;BME280;22716;51.556;5.080;2023-02-28T08:13:54;102432.59;;;3.26;81.57
36748;BME280;22716;51.556;5.080;2023-02-28T08:16:24;102442.53;;;3.36;80.36
36748;BME280;22716;51.556;5.080;2023-02-28T08:18:55;102436.44;;;3.34;78.96
36748;BME280;22716;51.556;5.080;2023-02-28T08:21:24;102440.22;;;3.42;78.25
36748;BME280;22716;51.556;5.080;2023-02-28T08:23:53;102418.44;;;3.37;77.44
36748;BME280;22716;51.556;5.080;2023-02-28T08:26:22;102439.69;;;3.49;76.46
36748;BME280;22716;51.556;5.080;2023-02-28T08:28:51;102436.59;;;3.58;75.77
36748;BME280;22716;51.556;5.080;2023-02-28T08:31:20;102440.41;;;3.66;75.11
36748;BME280;22716;51.556;5.080;2023-02-28T08:33:49;102436.91;;;3.65;73.03
36748;BME280;22716;51.556;5.080;2023-02-28T08:36:21;102435.09;;;3.63;71.30
36748;BME280;22716;51.556;5.080;2023-02-28T08:38:50;102417.00;;;3.64;70.11
36748;BME280;22716;51.556;5.080;2023-02-28T08:41:18;102428.50;;;3.71;66.64
36748;BME280;22716;51.556;5.080;2023-02-28T08:43:47;102428.72;;;3.75;65.13
36748;BME280;22716;51.556;5.080;2023-02-28T08:46:16;102436.41;;;3.74;63.07
36748;BME280;22716;51.556;5.080;2023-02-28T08:48:44;102432.03;;;3.73;61.58
36748;BME280;22716;51.556;5.080;2023-02-28T08:51:15;102426.69;;;3.68;60.71
36748;BME280;22716;51.556;5.080;2023-02-28T08:53:50;102433.06;;;3.76;60.62
36748;BME280;22716;51.556;5.080;2023-02-28T08:56:19;102419.84;;;3.70;60.65
36748;BME280;22716;51.556;5.080;2023-02-28T08:58:49;102429.25;;;3.87;59.99
36748;BME280;22716;51.556;5.080;2023-02-28T09:01:22;102426.88;;;3.93;59.71
36748;BME280;22716;51.556;5.080;2023-02-28T09:03:52;102443.19;;;4.12;59.08
36748;BME280;22716;51.556;5.080;2023-02-28T09:06:23;102435.41;;;4.12;58.86
36748;BME280;22716;51.556;5.080;2023-02-28T09:08:56;102442.31;;;4.11;58.38
36748;BME280;22716;51.556;5.080;2023-02-28T09:11:27;102422.16;;;4.04;58.09
36748;BME280;22716;51.556;5.080;2023-02-28T09:13:57;102446.28;;;4.24;57.81
36748;BME280;22716;51.556;5.080;2023-02-28T09:16:26;102449.25;;;4.33;58.08
36748;BME280;22716;51.556;5.080;2023-02-28T09:18:55;102408.78;;;4.16;58.32
36748;BME280;22716;51.556;5.080;2023-02-28T09:21:24;102445.34;;;4.42;58.56
36748;BME280;22716;51.556;5.080;2023-02-28T09:23:55;102444.44;;;4.42;58.25
36748;BME280;22716;51.556;5.080;2023-02-28T09:26:26;102447.72;;;4.38;58.26
36748;BME280;22716;51.556;5.080;2023-02-28T09:28:55;102445.97;;;4.37;57.95
36748;BME280;22716;51.556;5.080;2023-02-28T09:31:26;102450.41;;;4.39;57.22
36748;BME280;22716;51.556;5.080;2023-02-28T09:33:56;102444.19;;;4.36;56.26
36748;BME280;22716;51.556;5.080;2023-02-28T09:36:27;102450.78;;;4.28;55.30
36748;BME280;22716;51.556;5.080;2023-02-28T09:38:59;102432.56;;;4.06;54.54
36748;BME280;22716;51.556;5.080;2023-02-28T09:41:32;102452.50;;;4.07;53.75
36748;BME280;22716;51.556;5.080;2023-02-28T09:44:07;102453.56;;;4.12;53.58
36748;BME280;22716;51.556;5.080;2023-02-28T09:46:45;102444.97;;;4.13;53.40
36748;BME280;22716;51.556;5.080;2023-02-28T09:49:16;102457.56;;;4.24;53.36
36748;BME280;22716;51.556;5.080;2023-02-28T09:51:50;102445.28;;;4.20;52.73
36748;BME280;22716;51.556;5.080;2023-02-28T09:54:24;102453.81;;;4.18;52.80
36748;BME280;22716;51.556;5.080;2023-02-28T09:57:00;102459.84;;;4.17;52.50
36748;BME280;22716;51.556;5.080;2023-02-28T09:59:48;102456.38;;;4.16;51.85
36748;BME280;22716;51.556;5.080;2023-02-28T10:02:44;102444.84;;;4.10;51.47
36748;BME280;22716;51.556;5.080;2023-02-28T10:05:17;102431.81;;;4.08;51.46
36748;BME280;22716;51.556;5.080;2023-02-28T10:07:59;102440.47;;;4.09;50.64
36748;BME280;22716;51.556;5.080;2023-02-28T10:10:39;102455.34;;;4.13;50.33
36748;BME280;22716;51.556;5.080;2023-02-28T10:13:17;102442.38;;;4.13;49.88
36748;BME280;22716;51.556;5.080;2023-02-28T10:15:52;102443.28;;;4.13;49.68
36748;BME280;22716;51.556;5.080;2023-02-28T10:18:24;102450.16;;;4.13;49.58
36748;BME280;22716;51.556;5.080;2023-02-28T10:20:56;102438.91;;;4.12;49.36
36748;BME280;22716;51.556;5.080;2023-02-28T10:23:28;102436.63;;;4.20;49.29
36748;BME280;22716;51.556;5.080;2023-02-28T10:26:09;102444.75;;;4.29;49.22
36748;BME280;22716;51.556;5.080;2023-02-28T10:28:41;102436.00;;;4.25;49.59
36748;BME280;22716;51.556;5.080;2023-02-28T10:31:15;102433.28;;;4.22;49.31
36748;BME280;22716;51.556;5.080;2023-02-28T10:33:46;102426.13;;;4.17;49.31
36748;BME280;22716;51.556;5.080;2023-02-28T10:36:18;102433.16;;;4.19;49.38
36748;BME280;22716;51.556;5.080;2023-02-28T10:38:48;102422.13;;;4.25;49.71
36748;BME280;22716;51.556;5.080;2023-02-28T10:41:28;102423.06;;;4.27;49.69
36748;BME280;22716;51.556;5.080;2023-02-28T10:44:15;102417.88;;;4.27;49.62
36748;BME280;22716;51.556;5.080;2023-02-28T10:46:46;102422.28;;;4.29;49.16
36748;BME280;22716;51.556;5.080;2023-02-28T10:49:20;102417.09;;;4.29;49.21
36748;BME280;22716;51.556;5.080;2023-02-28T10:51:54;102416.31;;;4.30;49.08
36748;BME280;22716;51.556;5.080;2023-02-28T10:54:29;102409.41;;;4.31;49.05
36748;BME280;22716;51.556;5.080;2023-02-28T10:57:20;102418.78;;;4.27;48.68
36748;BME280;22716;51.556;5.080;2023-02-28T10:59:51;102406.03;;;4.33;48.75
36748;BME280;22716;51.556;5.080;2023-02-28T11:02:33;102403.84;;;4.44;48.39
36748;BME280;22716;51.556;5.080;2023-02-28T11:05:23;102394.38;;;4.44;48.38
36748;BME280;22716;51.556;5.080;2023-02-28T11:07:53;102398.91;;;4.50;47.92
36748;BME280;22716;51.556;5.080;2023-02-28T11:10:26;102401.16;;;4.63;47.91
36748;BME280;22716;51.556;5.080;2023-02-28T11:13:01;102410.00;;;4.68;47.70
36748;BME280;22716;51.556;5.080;2023-02-28T11:15:32;102402.47;;;4.76;47.82
36748;BME280;22716;51.556;5.080;2023-02-28T11:18:08;102392.53;;;4.86;47.72
36748;BME280;22716;51.556;5.080;2023-02-28T11:20:48;102379.41;;;4.83;47.59
36748;BME280;22716;51.556;5.080;2023-02-28T11:23:18;102394.69;;;4.98;47.26
36748;BME280;22716;51.556;5.080;2023-02-28T11:25:51;102392.31;;;5.04;47.18
36748;BME280;22716;51.556;5.080;2023-02-28T11:28:28;102382.91;;;5.07;46.78
36748;BME280;22716;51.556;5.080;2023-02-28T11:31:04;102390.81;;;5.11;46.36
36748;BME280;22716;51.556;5.080;2023-02-28T11:33:42;102388.63;;;5.23;46.07
36748;BME280;22716;51.556;5.080;2023-02-28T11:36:13;102399.00;;;5.21;45.80
36748;BME280;22716;51.556;5.080;2023-02-28T11:38:43;102382.84;;;5.30;45.61
36748;BME280;22716;51.556;5.080;2023-02-28T11:41:27;102396.16;;;5.39;45.01
36748;BME280;22716;51.556;5.080;2023-02-28T11:44:22;102388.63;;;5.46;45.01
36748;BME280;22716;51.556;5.080;2023-02-28T11:46:54;102383.72;;;5.54;44.85
36748;BME280;22716;51.556;5.080;2023-02-28T11:49:32;102356.69;;;5.49;44.85
36748;BME280;22716;51.556;5.080;2023-02-28T11:52:10;102378.06;;;5.67;44.83
36748;BME280;22716;51.556;5.080;2023-02-28T11:55:04;102370.34;;;5.69;44.22
36748;BME280;22716;51.556;5.080;2023-02-28T11:57:56;102374.88;;;5.76;44.40
36748;BME280;22716;51.556;5.080;2023-02-28T12:00:43;102378.72;;;5.85;44.25
36748;BME280;22716;51.556;5.080;2023-02-28T12:03:16;102384.13;;;5.91;44.12
36748;BME280;22716;51.556;5.080;2023-02-28T12:05:54;102377.56;;;6.02;44.05
36748;BME280;22716;51.556;5.080;2023-02-28T12:08:40;102359.31;;;6.01;43.76
36748;BME280;22716;51.556;5.080;2023-02-28T12:11:18;102363.00;;;6.07;43.49
36748;BME280;22716;51.556;5.080;2023-02-28T12:13:58;102357.88;;;6.10;43.25
36748;BME280;22716;51.556;5.080;2023-02-28T12:16:53;102364.50;;;6.28;43.13
36748;BME280;22716;51.556;5.080;2023-02-28T12:19:25;102362.00;;;6.31;42.85
36748;BME280;22716;51.556;5.080;2023-02-28T12:22:29;102353.56;;;6.39;42.76
36748;BME280;22716;51.556;5.080;2023-02-28T12:25:20;102361.88;;;6.56;42.84
36748;BME280;22716;51.556;5.080;2023-02-28T12:27:51;102365.13;;;6.49;42.56
36748;BME280;22716;51.556;5.080;2023-02-28T12:30:24;102348.22;;;6.35;42.53
36748;BME280;22716;51.556;5.080;2023-02-28T12:33:02;102357.19;;;6.44;42.76
36748;BME280;22716;51.556;5.080;2023-02-28T12:35:36;102345.38;;;6.27;42.93
36748;BME280;22716;51.556;5.080;2023-02-28T12:38:12;102354.31;;;6.08;42.94
36748;BME280;22716;51.556;5.080;2023-02-28T12:40:45;102356.63;;;5.99;43.18
36748;BME280;22716;51.556;5.080;2023-02-28T12:43:17;102350.31;;;5.91;43.58
36748;BME280;22716;51.556;5.080;2023-02-28T12:45:50;102345.53;;;5.78;43.93
36748;BME280;22716;51.556;5.080;2023-02-28T12:48:27;102318.03;;;5.59;44.25
36748;BME280;22716;51.556;5.080;2023-02-28T12:50:58;102345.97;;;5.66;44.68
36748;BME280;22716;51.556;5.080;2023-02-28T12:53:35;102337.41;;;5.69;44.92
36748;BME280;22716;51.556;5.080;2023-02-28T12:56:13;102340.22;;;5.75;45.30
36748;BME280;22716;51.556;5.080;2023-02-28T12:58:48;102319.81;;;5.60;45.46
36748;BME280;22716;51.556;5.080;2023-02-28T13:01:36;102333.81;;;5.65;45.56
36748;BME280;22716;51.556;5.080;2023-02-28T13:04:38;102323.34;;;5.64;45.67
36748;BME280;22716;51.556;5.080;2023-02-28T13:07:22;102330.94;;;5.58;45.73
36748;BME280;22716;51.556;5.080;2023-02-28T13:10:00;102324.94;;;5.59;46.04
36748;BME280;22716;51.556;5.080;2023-02-28T13:12:32;102305.50;;;5.48;45.89
36748;BME280;22716;51.556;5.080;2023-02-28T13:15:06;102319.50;;;5.51;46.05
36748;BME280;22716;51.556;5.080;2023-02-28T13:17:39;102306.31;;;5.47;46.42
36748;BME280;22716;51.556;5.080;2023-02-28T13:20:19;102302.84;;;5.46;46.12
36748;BME280;22716;51.556;5.080;2023-02-28T13:22:50;102285.78;;;5.29;46.11
36748;BME280;22716;51.556;5.080;2023-02-28T13:25:49;102310.31;;;5.37;46.29
36748;BME280;22716;51.556;5.080;2023-02-28T13:31:19;102301.38;;;5.29;45.95
36748;BME280;22716;51.556;5.080;2023-02-28T13:34:04;102298.28;;;5.39;46.04
36748;BME280;22716;51.556;5.080;2023-02-28T13:36:36;102299.78;;;5.33;46.21